Aviation Digital Data Service (ADDS)

Output produced by METARs form (0154 UTC 25 February 2018)
found at http://aviationweather.gov/adds/metars/
 
KILE 250056Z AUTO 03009KT 10SM CLR 16/15 A2992 RMK AO2 RAE12 SLP145 P0001 T01610150
KILE 250028Z AUTO 04010KT 10SM FEW012 SCT033 BKN055 17/16 A2991 RMK AO2 RAE12 P0000
KILE 242356Z AUTO 36008KT 10SM -RA OVC026 17/17 A2988 RMK AO2 WSHFT 2314 LTG DSNT NE TSE56RAB39 SLP133 P0000 60000 T01720167 10261 20172 53025
KILE 242332Z AUTO 33011KT 10SM TS FEW022 BKN028 BKN038 19/16 A2989 RMK AO2 WSHFT 2314 LTG DSNT NE PRESRR
KILE 242256Z AUTO 18010KT 10SM VCTS CLR 24/19 A2982 RMK AO2 LTG DSNT N AND W TSB55 SLP108 T02440189
KILE 242156Z AUTO 19013G17KT 10SM FEW031 26/18 A2981 RMK AO2 SLP104 T02560183
KILE 242056Z AUTO 19011G17KT 10SM CLR 25/19 A2981 RMK AO2 SLP104 T02500189 58016
KILE 241956Z AUTO 20015KT 10SM SCT025 BKN040 24/19 A2984 RMK AO2 SLP116 T02440189
KILE 241856Z AUTO 21016G19KT 10SM BKN021 24/19 A2986 RMK AO2 SLP123 T02440194
KILE 241848Z AUTO 21013KT 10SM BKN021 25/19 A2986 RMK AO2
KILE 241756Z AUTO 20019G25KT 10SM SCT024 BKN034 OVC055 23/19 A2987 RMK AO2 PK WND 19027/1728 RAB22E37 SLP129 P0000 60002 T02330194 10233 20183 50004
KILE 241656Z AUTO 22009KT 10SM OVC016 21/19 A2989 RMK AO2 RAE09 SLP136 P0000 T02110189
KILE 241556Z AUTO 19014G22KT 10SM -RA OVC014 21/19 A2987 RMK AO2 RAB45 SLP128 P0000 T02060189
KILE 241456Z AUTO 18016KT 10SM OVC014 20/19 A2986 RMK AO2 RAB28E52 SLP127 P0001 60002 T02000189 56005
KILE 241356Z AUTO 18009KT 7SM OVC014 19/19 A2986 RMK AO2 RAE49 SLP127 P0000 T01940189
KILE 241242Z AUTO 20007KT 7SM -RA FEW003 OVC009 19/19 A2988 RMK AO2 LTG DSNT S AND NW RAB12 CIG 008V013 P0000
KILE 241156Z AUTO 15008KT 4SM BR BKN003 OVC022 18/18 A2985 RMK AO2 RAE56 SLP124 P0001 60002 70007 T01830178 10183 20133 56029
KILE 241116Z AUTO 14013KT 3SM -RA BR OVC003 18/18 A2984 RMK AO2 PRESFR P0001
KILE 241056Z AUTO 15009KT 1 1/4SM -RA BR OVC003 17/17 A2988 RMK AO2 SLP134 P0001 T01720172
KILE 241048Z AUTO 13007KT 1SM -RA BR OVC003 17/17 A2987 RMK AO2 P0001
KILE 241033Z AUTO 13007KT 1/2SM -RA FG OVC003 17/17 A2989 RMK AO2 P0000
KILE 240956Z AUTO 15009KT 3/4SM -RA BR OVC003 17/17 A2990 RMK AO2 SLP143 P0000 T01720167
KILE 240856Z AUTO 13004KT 1/2SM -RA FG OVC003 16/16 A2994 RMK AO2 RAB01 SLP155 P0000 60000 T01610156 58014
KILE 240825Z AUTO 13004KT 1/2SM -RA FG OVC003 15/15 A2995 RMK AO2 RAB01 P0000
KILE 240756Z AUTO 13004KT 3/4SM BR OVC003 14/14 A2997 RMK AO2 RAB31E56 SLP166 P0000 T01440139
KILE 240748Z AUTO 12003KT 3/4SM -RA BR OVC003 14/14 A2997 RMK AO2 RAB31 P0000
KILE 240732Z AUTO 00000KT 1SM -RA BR OVC003 14/14 A2998 RMK AO2 RAB31 P0000
KILE 240716Z AUTO 00000KT 2 1/2SM BR OVC003 14/14 A2997 RMK AO2 CIG 002V005
KILE 240656Z AUTO 00000KT 4SM BR OVC005 14/13 A2998 RMK AO2 SLP172 T01390133
KILE 240556Z AUTO 00000KT 3SM BR OVC009 13/13 A2999 RMK AO2 CIG 007V011 SLP176 T01330133 10133 20128 401330044 58014
KILE 240505Z AUTO 00000KT 3SM BR FEW003 OVC013 13/13 A3002 RMK AO2
KILE 240456Z AUTO 00000KT 2SM BR BKN003 OVC013 13/13 A3002 RMK AO2 SLP186 T01280128
KILE 240356Z AUTO 01004KT 2 1/2SM BR OVC003 13/13 A3003 RMK AO2 SLP192 T01280128
KILE 240330Z AUTO 01003KT 2SM BR OVC003 13/13 A3003 RMK AO2
KILE 240256Z AUTO 00000KT 1 3/4SM BR OVC003 13/13 A3003 RMK AO2 SLP194 T01280128 53004
KILE 240229Z AUTO 00000KT 1 1/2SM BR OVC003 13/13 A3003 RMK AO2
KILE 240207Z AUTO 00000KT 2SM BR OVC003 13/13 A3003 RMK AO2
KILE 240156Z AUTO 26003KT 1SM BR OVC003 13/13 A3002 RMK AO2 SLP187 T01280128